createdAt,value
2018-02-05T00:00:48.398Z,99.99
2018-02-05T00:01:48.357Z,99.99
2018-02-05T00:02:48.358Z,99.99
2018-02-05T00:03:48.339Z,99.99
2018-02-05T00:04:48.317Z,99.99
2018-02-05T00:05:48.280Z,99.99
2018-02-05T00:06:48.255Z,99.99
2018-02-05T00:07:48.256Z,99.99
2018-02-05T00:08:48.240Z,99.99
2018-02-05T00:09:48.198Z,99.99
2018-02-05T00:10:48.200Z,99.99
2018-02-05T00:11:48.183Z,99.99
2018-02-05T00:12:48.155Z,99.99
2018-02-05T00:13:48.110Z,99.99
2018-02-05T00:14:48.115Z,99.99
2018-02-05T00:15:48.097Z,99.99
2018-02-05T00:16:48.081Z,99.99
2018-02-05T00:17:48.031Z,99.99
2018-02-05T00:18:48.013Z,99.99
2018-02-05T00:19:48.017Z,99.99
2018-02-05T00:20:47.983Z,99.99
2018-02-05T00:21:47.948Z,99.99
2018-02-05T00:22:47.929Z,99.99
2018-02-05T00:23:47.919Z,99.99
2018-02-05T00:24:47.910Z,99.99
2018-02-05T00:25:47.865Z,99.99
2018-02-05T00:26:47.843Z,99.99
2018-02-05T00:27:47.826Z,99.99
2018-02-05T00:28:47.805Z,99.99
2018-02-05T00:29:47.785Z,99.99
2018-02-05T00:30:47.768Z,99.99
2018-02-05T00:31:47.758Z,99.99
2018-02-05T00:32:47.752Z,99.99
2018-02-05T00:33:47.707Z,99.99
2018-02-05T00:34:47.698Z,99.99
2018-02-05T00:35:47.691Z,99.99
2018-02-05T00:36:47.649Z,99.99
2018-02-05T00:37:47.634Z,99.99
2018-02-05T00:38:47.621Z,99.99
2018-02-05T00:39:47.581Z,99.99
2018-02-05T00:40:47.561Z,99.99
2018-02-05T00:41:47.547Z,99.99
2018-02-05T00:42:47.525Z,99.99
2018-02-05T00:43:47.501Z,99.99
2018-02-05T00:44:47.479Z,99.99
2018-02-05T00:45:47.459Z,99.99
2018-02-05T00:46:47.456Z,99.99
2018-02-05T00:47:47.418Z,99.99
2018-02-05T00:48:47.397Z,99.99
2018-02-05T00:49:47.378Z,99.99
2018-02-05T00:50:47.390Z,99.99
2018-02-05T00:51:47.366Z,99.99
2018-02-05T00:52:47.342Z,99.99
2018-02-05T00:53:47.322Z,99.99
2018-02-05T00:54:47.276Z,99.99
2018-02-05T00:55:47.263Z,99.99
2018-02-05T00:56:47.237Z,99.99
2018-02-05T00:57:47.215Z,99.99
2018-02-05T00:58:47.220Z,99.99
2018-02-05T00:59:47.171Z,99.99
2018-02-05T01:00:47.164Z,99.99
2018-02-05T01:01:47.139Z,99.99
2018-02-05T01:02:47.128Z,99.99
2018-02-05T01:03:47.122Z,99.99
2018-02-05T01:04:47.067Z,99.99
2018-02-05T01:05:47.055Z,99.99
2018-02-05T01:06:47.032Z,99.99
2018-02-05T01:07:47.014Z,99.99
2018-02-05T01:08:46.990Z,99.99
2018-02-05T01:09:46.996Z,99.99
2018-02-05T01:10:46.947Z,99.99
2018-02-05T01:11:46.933Z,99.99
2018-02-05T01:12:46.911Z,99.99
2018-02-05T01:13:46.892Z,99.99
2018-02-05T01:14:46.868Z,99.99
2018-02-05T01:15:46.849Z,99.99
2018-02-05T01:16:46.829Z,99.99
2018-02-05T01:17:46.820Z,99.99
2018-02-05T01:18:46.785Z,99.99
2018-02-05T01:19:46.773Z,99.99
2018-02-05T01:20:46.752Z,99.99
2018-02-05T01:21:46.722Z,99.99
2018-02-05T01:22:46.706Z,99.99
2018-02-05T01:23:46.687Z,99.99
2018-02-05T01:24:46.667Z,99.99
2018-02-05T01:25:46.654Z,99.99
2018-02-05T01:26:46.635Z,99.99
2018-02-05T01:27:46.616Z,99.99
2018-02-05T01:28:46.612Z,99.99
2018-02-05T01:29:46.587Z,99.99
2018-02-05T01:30:46.558Z,99.99
2018-02-05T01:31:46.550Z,99.99
2018-02-05T01:32:46.536Z,99.99
2018-02-05T01:33:46.481Z,99.99
2018-02-05T01:34:46.457Z,99.99
2018-02-05T01:35:46.466Z,99.99
2018-02-05T01:36:46.419Z,99.99
2018-02-05T01:37:46.431Z,99.99
2018-02-05T01:38:46.383Z,99.99
2018-02-05T01:39:46.384Z,99.99
2018-02-05T01:40:46.337Z,99.99
2018-02-05T01:41:46.351Z,99.99
2018-02-05T01:42:46.302Z,99.99
2018-02-05T01:43:46.274Z,99.99
2018-02-05T01:44:46.259Z,99.99
2018-02-05T01:45:46.266Z,99.99
2018-02-05T01:46:46.250Z,99.99
2018-02-05T01:47:46.199Z,99.99
2018-02-05T01:48:46.182Z,99.99
2018-02-05T01:49:46.188Z,99.99
2018-02-05T01:50:46.140Z,99.99
2018-02-05T01:51:46.116Z,99.99
2018-02-05T01:52:46.096Z,99.99
2018-02-05T01:53:46.106Z,99.99
2018-02-05T01:54:46.078Z,99.99
2018-02-05T01:55:46.066Z,99.99
2018-02-05T01:56:46.040Z,99.99
2018-02-05T01:57:46.004Z,99.99
2018-02-05T01:58:45.974Z,99.99
2018-02-05T01:59:45.969Z,99.99
2018-02-05T02:00:45.931Z,99.99
2018-02-05T02:01:45.915Z,99.99
2018-02-05T02:02:45.893Z,99.99
2018-02-05T02:03:45.871Z,99.99
2018-02-05T02:04:45.851Z,99.99
2018-02-05T02:05:45.829Z,99.99
2018-02-05T02:06:45.821Z,99.99
2018-02-05T02:07:45.793Z,99.99
2018-02-05T02:08:45.798Z,99.99
2018-02-05T02:09:45.782Z,99.99
2018-02-05T02:10:45.760Z,99.99
2018-02-05T02:11:45.724Z,99.99
2018-02-05T02:12:45.688Z,99.99
2018-02-05T02:13:45.667Z,99.99
2018-02-05T02:14:45.650Z,99.99
2018-02-05T02:15:45.656Z,99.99
2018-02-05T02:16:45.632Z,99.99
2018-02-05T02:17:45.598Z,99.99
2018-02-05T02:18:45.572Z,99.99
2018-02-05T02:19:45.567Z,99.99
2018-02-05T02:20:45.543Z,99.99
2018-02-05T02:21:45.503Z,99.99
2018-02-05T02:22:45.499Z,99.99
2018-02-05T02:23:45.474Z,99.99
2018-02-05T02:24:45.453Z,99.99
2018-02-05T02:25:45.456Z,99.99
2018-02-05T02:26:45.409Z,99.99
2018-02-05T02:27:45.420Z,99.99
2018-02-05T02:28:45.365Z,99.99
2018-02-05T02:29:45.347Z,99.99
2018-02-05T02:30:45.356Z,99.99
2018-02-05T02:31:45.314Z,99.99
2018-02-05T02:32:45.318Z,99.99
2018-02-05T02:33:45.298Z,99.99
2018-02-05T02:34:45.264Z,99.99
2018-02-05T02:35:45.227Z,99.99
2018-02-05T02:36:45.210Z,99.99
2018-02-05T02:37:45.186Z,99.99
2018-02-05T02:38:45.192Z,99.99
2018-02-05T02:39:45.148Z,99.99
2018-02-05T02:40:45.128Z,99.99
2018-02-05T02:41:45.104Z,99.99
2018-02-05T02:42:45.110Z,99.99
2018-02-05T02:43:45.096Z,99.99
2018-02-05T02:44:45.048Z,99.99
2018-02-05T02:45:45.030Z,99.99
2018-02-05T02:46:45.006Z,99.99
2018-02-05T02:47:45.009Z,99.99
2018-02-05T02:48:44.991Z,99.99
2018-02-05T02:49:44.971Z,99.99
2018-02-05T02:50:44.935Z,99.99
2018-02-05T02:51:44.901Z,99.99
2018-02-05T02:52:44.881Z,99.99
2018-02-05T02:53:44.870Z,99.99
2018-02-05T02:54:44.841Z,99.99
2018-02-05T02:55:44.833Z,99.99
2018-02-05T02:56:44.802Z,99.99
2018-02-05T02:57:44.808Z,99.88
2018-02-05T02:58:44.763Z,99.68
2018-02-05T02:59:44.743Z,99.30
2018-02-05T03:00:44.748Z,99.40
2018-02-05T03:01:44.702Z,99.99
2018-02-05T03:02:44.693Z,99.21
2018-02-05T03:03:44.673Z,99.78
2018-02-05T03:04:44.637Z,99.21
2018-02-05T03:05:44.648Z,99.59
2018-02-05T03:06:44.598Z,99.40
2018-02-05T03:07:44.585Z,99.30
2018-02-05T03:08:44.556Z,99.40
2018-02-05T03:09:44.535Z,98.91
2018-02-05T03:10:44.541Z,99.21
2018-02-05T03:11:44.501Z,99.59
2018-02-05T03:12:44.503Z,99.40
2018-02-05T03:13:44.466Z,99.40
2018-02-05T03:14:44.458Z,99.21
2018-02-05T03:15:44.425Z,99.11
2018-02-05T03:16:44.396Z,99.40
2018-02-05T03:17:44.382Z,99.59
2018-02-05T03:18:44.353Z,99.30
2018-02-05T03:19:44.344Z,99.11
2018-02-05T03:20:44.311Z,99.11
2018-02-05T03:21:44.291Z,99.21
2018-02-05T03:22:44.299Z,99.68
2018-02-05T03:23:44.290Z,99.78
2018-02-05T03:24:44.238Z,99.98
2018-02-05T03:25:44.218Z,99.78
2018-02-05T03:26:44.211Z,99.49
2018-02-05T03:27:44.167Z,99.59
2018-02-05T03:28:44.150Z,99.59
2018-02-05T03:29:44.156Z,99.59
2018-02-05T03:30:44.112Z,99.40
2018-02-05T03:31:44.114Z,99.59
2018-02-05T03:32:44.096Z,99.40
2018-02-05T03:33:44.051Z,99.99
2018-02-05T03:34:44.027Z,99.99
2018-02-05T03:35:44.037Z,99.99
2018-02-05T03:36:44.014Z,99.68
2018-02-05T03:37:43.983Z,99.99
2018-02-05T03:38:44.489Z,99.99
2018-02-05T03:39:43.929Z,99.99
2018-02-05T03:40:43.910Z,99.99
2018-02-05T03:41:43.913Z,99.99
2018-02-05T03:42:43.889Z,99.99
2018-02-05T03:43:43.873Z,99.99
2018-02-05T03:44:43.817Z,99.99
2018-02-05T03:45:43.816Z,99.99
2018-02-05T03:46:43.807Z,99.99
2018-02-05T03:47:43.788Z,99.99
2018-02-05T03:48:43.741Z,99.99
2018-02-05T03:49:43.715Z,99.99
2018-02-05T03:50:43.705Z,99.99
2018-02-05T03:51:43.710Z,99.99
2018-02-05T03:52:43.659Z,99.99
2018-02-05T03:53:43.643Z,99.99
2018-02-05T03:54:43.618Z,99.99
2018-02-05T03:55:43.601Z,99.99
2018-02-05T03:56:43.602Z,99.99
2018-02-05T03:57:43.555Z,99.99
2018-02-05T03:58:43.566Z,99.99
2018-02-05T03:59:43.542Z,99.99
2018-02-05T04:00:43.514Z,99.99
2018-02-05T04:01:43.501Z,99.99
2018-02-05T04:02:43.484Z,99.99
2018-02-05T04:03:43.460Z,99.99
2018-02-05T04:04:43.419Z,99.99
2018-02-05T04:05:43.395Z,99.99
2018-02-05T04:06:43.398Z,99.99
2018-02-05T04:07:43.365Z,99.99
2018-02-05T04:08:43.333Z,99.99
2018-02-05T04:09:43.339Z,99.99
2018-02-05T04:10:43.303Z,99.99
2018-02-05T04:11:43.299Z,99.99
2018-02-05T04:12:43.248Z,99.99
2018-02-05T04:13:43.256Z,99.99
2018-02-05T04:14:43.214Z,99.99
2018-02-05T04:15:43.191Z,99.99
2018-02-05T04:16:43.162Z,99.99
2018-02-05T04:17:43.152Z,99.99
2018-02-05T04:18:43.128Z,99.99
2018-02-05T04:19:43.134Z,99.99
2018-02-05T04:20:43.108Z,99.99
2018-02-05T04:21:43.067Z,99.99
2018-02-05T04:22:43.048Z,99.99
2018-02-05T04:23:43.022Z,99.99
2018-02-05T04:24:43.025Z,99.99
2018-02-05T04:25:42.980Z,99.99
2018-02-05T04:26:42.989Z,99.99
2018-02-05T04:27:42.967Z,99.99
2018-02-05T04:28:42.917Z,99.99
2018-02-05T04:29:42.900Z,99.99
2018-02-05T04:30:42.909Z,99.99
2018-02-05T04:31:42.866Z,99.99
2018-02-05T04:32:42.840Z,99.99
2018-02-05T04:33:42.829Z,99.99
2018-02-05T04:34:42.823Z,99.99
2018-02-05T04:35:42.803Z,99.99
2018-02-05T04:36:42.754Z,99.99
2018-02-05T04:37:42.741Z,99.99
2018-02-05T04:38:42.718Z,99.99
2018-02-05T04:39:42.694Z,99.99
2018-02-05T04:40:42.684Z,99.99
2018-02-05T04:41:42.674Z,99.99
2018-02-05T04:42:42.632Z,99.99
2018-02-05T04:43:42.616Z,99.99
2018-02-05T04:44:42.614Z,99.99
2018-02-05T04:45:42.595Z,99.99
2018-02-05T04:46:42.561Z,99.99
2018-02-05T04:47:42.540Z,99.99
2018-02-05T04:48:42.528Z,99.99
2018-02-05T04:49:42.513Z,99.99
2018-02-05T04:50:42.470Z,99.99
2018-02-05T04:51:42.470Z,99.99
2018-02-05T04:52:42.421Z,99.99
2018-02-05T04:53:42.432Z,99.99
2018-02-05T04:54:42.405Z,99.99
2018-02-05T04:55:42.370Z,99.99
2018-02-05T04:56:42.885Z,99.99
2018-02-05T04:57:42.353Z,99.99
2018-02-05T04:58:42.299Z,99.99
2018-02-05T04:59:42.274Z,99.99
2018-02-05T05:00:42.290Z,99.99
2018-02-05T05:01:42.241Z,99.99
2018-02-05T05:02:42.219Z,99.99
2018-02-05T05:03:42.222Z,99.99
2018-02-05T05:04:42.182Z,99.99
2018-02-05T05:05:42.184Z,99.99
2018-02-05T05:06:42.153Z,99.99
2018-02-05T05:07:42.119Z,99.99
2018-02-05T05:08:42.101Z,99.99
2018-02-05T05:09:42.080Z,99.99
2018-02-05T05:10:42.053Z,99.99
2018-02-05T05:11:42.041Z,99.99
2018-02-05T05:12:42.043Z,99.99
2018-02-05T05:13:41.992Z,99.99
2018-02-05T05:14:41.976Z,99.99
2018-02-05T05:15:41.980Z,99.99
2018-02-05T05:16:41.929Z,99.99
2018-02-05T05:17:41.945Z,99.99
2018-02-05T05:18:41.892Z,99.99
2018-02-05T05:19:41.901Z,99.99
2018-02-05T05:20:41.877Z,99.99
2018-02-05T05:21:41.829Z,99.99
2018-02-05T05:22:41.803Z,99.99
2018-02-05T05:23:41.817Z,99.99
2018-02-05T05:24:41.778Z,99.99
2018-02-05T05:25:41.750Z,99.99
2018-02-05T05:26:41.744Z,99.99
2018-02-05T05:27:41.704Z,99.99
2018-02-05T05:28:41.719Z,99.99
2018-02-05T05:29:41.675Z,99.99
2018-02-05T05:30:41.648Z,99.99
2018-02-05T05:31:41.639Z,99.99
2018-02-05T05:32:41.614Z,99.99
2018-02-05T05:33:41.600Z,99.99
2018-02-05T05:34:41.597Z,99.99
2018-02-05T05:35:41.541Z,99.99
2018-02-05T05:36:41.551Z,99.99
2018-02-05T05:37:41.529Z,99.99
2018-02-05T05:38:41.490Z,99.99
2018-02-05T05:39:41.492Z,99.99
2018-02-05T05:40:41.448Z,99.99
2018-02-05T05:41:41.421Z,99.99
2018-02-05T05:42:41.426Z,99.99
2018-02-05T05:43:41.383Z,99.99
2018-02-05T05:44:41.362Z,99.99
2018-02-05T05:45:41.372Z,99.99
2018-02-05T05:46:41.318Z,99.99
2018-02-05T05:47:41.310Z,99.99
2018-02-05T05:48:41.285Z,99.99
2018-02-05T05:49:41.282Z,99.99
2018-02-05T05:50:41.265Z,99.99
2018-02-05T05:51:41.219Z,99.99
2018-02-05T05:52:41.196Z,99.99
2018-02-05T05:53:41.201Z,99.99
2018-02-05T05:54:41.168Z,99.99
2018-02-05T05:55:41.143Z,99.99
2018-02-05T05:56:41.114Z,99.99
2018-02-05T05:57:41.094Z,99.99
2018-02-05T05:58:41.092Z,99.99
2018-02-05T05:59:41.064Z,99.99
2018-02-05T06:00:41.028Z,99.99
2018-02-05T06:01:41.011Z,99.99
2018-02-05T06:02:40.995Z,99.99
2018-02-05T06:03:40.982Z,99.99
2018-02-05T06:04:40.948Z,99.99
2018-02-05T06:05:40.931Z,99.99
2018-02-05T06:06:40.920Z,99.99
2018-02-05T06:07:40.935Z,99.99
2018-02-05T06:08:40.863Z,99.99
2018-02-05T06:09:40.848Z,99.99
2018-02-05T06:10:40.854Z,99.99
2018-02-05T06:11:40.802Z,99.99
2018-02-05T06:12:40.813Z,99.99
2018-02-05T06:13:40.768Z,99.99
2018-02-05T06:14:40.743Z,99.99
2018-02-05T06:15:40.725Z,99.99
2018-02-05T06:16:40.734Z,99.99
2018-02-05T06:17:40.715Z,99.99
2018-02-05T06:18:40.664Z,99.99
2018-02-05T06:19:40.654Z,99.99
2018-02-05T06:20:40.624Z,99.99
2018-02-05T06:21:40.599Z,99.99
2018-02-05T06:22:40.580Z,99.99
2018-02-05T06:23:40.587Z,99.99
2018-02-05T06:24:40.540Z,99.99
2018-02-05T06:25:40.516Z,99.99
2018-02-05T06:26:40.521Z,99.99
2018-02-05T06:27:40.474Z,99.99
2018-02-05T06:28:40.483Z,99.99
2018-02-05T06:29:40.433Z,99.99
2018-02-05T06:30:40.979Z,99.99
2018-02-05T06:31:40.425Z,99.99
2018-02-05T06:32:40.375Z,99.99
2018-02-05T06:33:40.377Z,99.99
2018-02-05T06:34:40.361Z,99.99
2018-02-05T06:35:40.312Z,99.99
2018-02-05T06:36:40.316Z,99.99
2018-02-05T06:37:40.269Z,99.99
2018-02-05T06:38:40.275Z,99.99
2018-02-05T06:39:40.250Z,99.99
2018-02-05T06:40:40.214Z,99.99
2018-02-05T06:41:40.201Z,99.99
2018-02-05T06:42:40.167Z,99.99
2018-02-05T06:43:40.143Z,99.99
2018-02-05T06:44:40.148Z,99.99
2018-02-05T06:45:40.102Z,99.99
2018-02-05T06:46:40.111Z,99.99
2018-02-05T06:47:40.067Z,99.99
2018-02-05T06:48:40.064Z,99.99
2018-02-05T06:49:40.045Z,99.99
2018-02-05T06:50:39.994Z,99.99
2018-02-05T06:51:40.001Z,99.99
2018-02-05T06:52:39.985Z,99.99
2018-02-05T06:53:39.936Z,99.99
2018-02-05T06:54:39.918Z,99.99
2018-02-05T06:55:39.894Z,99.99
2018-02-05T06:56:39.894Z,99.99
2018-02-05T06:57:39.851Z,99.99
2018-02-05T06:58:39.834Z,99.99
2018-02-05T06:59:39.816Z,99.99
2018-02-05T07:00:39.802Z,99.99
2018-02-05T07:01:39.795Z,99.99
2018-02-05T07:02:39.768Z,99.99
2018-02-05T07:03:39.731Z,99.99
2018-02-05T07:04:39.701Z,99.99
2018-02-05T07:05:39.694Z,99.99
2018-02-05T07:06:39.661Z,99.99
2018-02-05T07:07:39.637Z,99.99
2018-02-05T07:08:39.630Z,99.99
2018-02-05T07:09:39.593Z,99.99
2018-02-05T07:10:39.574Z,99.99
2018-02-05T07:11:39.554Z,99.99
2018-02-05T07:12:39.537Z,99.99
2018-02-05T07:13:39.510Z,99.99
2018-02-05T07:14:39.501Z,99.99
2018-02-05T07:15:39.466Z,99.99
2018-02-05T07:16:39.471Z,99.99
2018-02-05T07:17:39.452Z,99.99
2018-02-05T07:18:39.394Z,99.99
2018-02-05T07:19:39.386Z,99.99
2018-02-05T07:20:39.359Z,99.99
2018-02-05T07:21:39.343Z,99.99
2018-02-05T07:22:39.327Z,99.99
2018-02-05T07:23:39.299Z,99.99
2018-02-05T07:24:39.303Z,99.99
2018-02-05T07:25:39.262Z,99.99
2018-02-05T07:26:39.229Z,99.99
2018-02-05T07:27:39.219Z,99.99
2018-02-05T07:28:39.204Z,99.99
2018-02-05T07:29:39.179Z,99.99
2018-02-05T07:30:39.147Z,99.99
2018-02-05T07:31:39.130Z,99.99
2018-02-05T07:32:39.131Z,99.99
2018-02-05T07:33:39.084Z,99.99
2018-02-05T07:34:39.091Z,99.99
2018-02-05T07:35:39.066Z,99.99
2018-02-05T07:36:39.010Z,99.99
2018-02-05T07:37:39.018Z,99.99
2018-02-05T07:38:38.987Z,99.99
2018-02-05T07:39:38.952Z,99.99
2018-02-05T07:40:38.926Z,99.99
2018-02-05T07:41:38.910Z,99.99
2018-02-05T07:42:38.889Z,99.99
2018-02-05T07:43:38.895Z,99.99
2018-02-05T07:44:38.916Z,99.99
2018-02-05T07:45:38.836Z,99.99
2018-02-05T07:46:38.811Z,99.99
2018-02-05T07:47:38.787Z,99.99
2018-02-05T07:48:38.782Z,99.99
2018-02-05T07:49:38.739Z,99.99
2018-02-05T07:50:38.749Z,99.99
2018-02-05T07:51:38.694Z,99.99
2018-02-05T07:52:38.687Z,99.99
2018-02-05T07:53:38.658Z,99.99
2018-02-05T07:54:38.645Z,99.99
2018-02-05T07:55:38.614Z,99.99
2018-02-05T07:56:39.126Z,99.99
2018-02-05T07:57:38.561Z,99.99
2018-02-05T07:58:38.545Z,99.99
2018-02-05T07:59:38.528Z,99.99
2018-02-05T08:00:38.516Z,99.99
2018-02-05T08:01:38.487Z,99.99
2018-02-05T08:02:38.464Z,99.99
2018-02-05T08:03:38.469Z,99.99
2018-02-05T08:04:38.419Z,99.99
2018-02-05T08:05:38.400Z,99.99
2018-02-05T08:06:38.377Z,99.99
2018-02-05T08:07:38.390Z,99.99
2018-02-05T08:08:38.367Z,99.99
2018-02-05T08:09:38.319Z,99.99
2018-02-05T08:10:38.308Z,99.99
2018-02-05T08:11:38.285Z,99.99
2018-02-05T08:12:38.278Z,99.99
2018-02-05T08:13:38.229Z,99.99
2018-02-05T08:14:38.221Z,99.99
2018-02-05T08:15:38.203Z,99.99
2018-02-05T08:16:38.192Z,99.99
2018-02-05T08:17:38.146Z,99.99
2018-02-05T08:18:38.127Z,99.99
2018-02-05T08:19:38.129Z,99.99
2018-02-05T08:20:38.111Z,99.99
2018-02-05T08:21:38.063Z,99.99
2018-02-05T08:22:38.052Z,99.99
2018-02-05T08:23:38.022Z,99.99
2018-02-05T08:24:38.001Z,99.99
2018-02-05T08:25:37.977Z,99.99
2018-02-05T08:26:37.956Z,99.99
2018-02-05T08:27:37.935Z,99.99
2018-02-05T08:28:37.912Z,99.99
2018-02-05T08:29:37.920Z,99.99
2018-02-05T08:30:37.901Z,99.99
2018-02-05T08:31:37.875Z,99.99
2018-02-05T08:32:37.828Z,99.99
2018-02-05T08:33:37.822Z,99.99
2018-02-05T08:34:37.789Z,99.99
2018-02-05T08:35:37.778Z,99.99
2018-02-05T08:36:37.758Z,99.99
2018-02-05T08:37:37.749Z,99.99
2018-02-05T08:38:37.703Z,99.99
2018-02-05T08:39:37.711Z,99.99
2018-02-05T08:40:37.659Z,99.99
2018-02-05T08:41:37.644Z,99.99
2018-02-05T08:42:37.619Z,99.99
2018-02-05T08:43:37.611Z,99.99
2018-02-05T08:44:37.583Z,99.99
2018-02-05T08:45:37.553Z,99.99
2018-02-05T08:46:37.597Z,99.99
2018-02-05T08:47:37.516Z,99.99
2018-02-05T08:48:37.495Z,99.99
2018-02-05T08:49:37.480Z,99.99
2018-02-05T08:50:37.474Z,99.99
2018-02-05T08:51:37.608Z,99.99
2018-02-05T08:52:37.406Z,99.99
2018-02-05T08:53:37.389Z,99.99
2018-02-05T08:54:37.371Z,99.99
2018-02-05T08:55:37.344Z,99.99
2018-02-05T08:56:37.406Z,99.99
2018-02-05T08:57:37.334Z,99.99
2018-02-05T08:58:37.285Z,99.99
2018-02-05T08:59:37.256Z,99.99
2018-02-05T09:00:37.245Z,99.99
2018-02-05T09:01:37.246Z,99.99
2018-02-05T09:02:37.210Z,99.99
2018-02-05T09:03:37.180Z,99.99
2018-02-05T09:04:37.158Z,99.99
2018-02-05T09:05:37.146Z,99.99
2018-02-05T09:06:37.112Z,99.99
2018-02-05T09:07:37.093Z,99.99
2018-02-05T09:08:37.099Z,99.99
2018-02-05T09:09:37.054Z,99.99
2018-02-05T09:10:37.039Z,99.99
2018-02-05T09:11:37.013Z,99.99
2018-02-05T09:12:37.015Z,99.99
2018-02-05T09:13:36.968Z,99.99
2018-02-05T09:14:36.966Z,99.99
2018-02-05T09:15:37.001Z,99.99
2018-02-05T09:16:36.953Z,99.99
2018-02-05T09:17:36.909Z,99.99
2018-02-05T09:18:36.868Z,99.99
2018-02-05T09:19:36.852Z,99.99
2018-02-05T09:20:36.852Z,99.99
2018-02-05T09:21:36.831Z,99.99
2018-02-05T09:22:36.786Z,99.99
2018-02-05T09:23:36.790Z,99.99
2018-02-05T09:24:36.742Z,99.99
2018-02-05T09:25:36.714Z,99.99
2018-02-05T09:26:36.705Z,99.99
2018-02-05T09:27:36.710Z,99.99
2018-02-05T09:28:36.660Z,99.99
2018-02-05T09:29:36.651Z,99.99
2018-02-05T09:30:36.635Z,99.99
2018-02-05T09:31:36.596Z,99.99
2018-02-05T09:32:36.606Z,99.99
2018-02-05T09:33:36.579Z,99.99
2018-02-05T09:34:36.558Z,99.99
2018-02-05T09:35:36.525Z,99.99
2018-02-05T09:36:36.496Z,99.99
2018-02-05T09:37:36.500Z,99.99
2018-02-05T09:38:36.446Z,99.99
2018-02-05T09:39:36.460Z,99.99
2018-02-05T09:40:36.436Z,99.99
2018-02-05T09:41:36.415Z,99.99
2018-02-05T09:42:36.384Z,99.99
2018-02-05T09:43:36.349Z,99.99
2018-02-05T09:44:36.329Z,99.99
2018-02-05T09:45:36.317Z,99.99
2018-02-05T09:46:36.316Z,99.99
2018-02-05T09:47:36.276Z,99.99
2018-02-05T09:48:36.280Z,99.99
2018-02-05T09:49:36.227Z,99.99
2018-02-05T09:50:36.233Z,99.99
2018-02-05T09:51:36.191Z,99.99
2018-02-05T09:52:36.192Z,99.99
2018-02-05T09:53:36.144Z,99.99
2018-02-05T09:54:36.130Z,99.99
2018-02-05T09:55:36.112Z,99.99
2018-02-05T09:56:36.119Z,99.99
2018-02-05T09:57:36.078Z,99.99
2018-02-05T09:58:36.059Z,99.99
2018-02-05T09:59:36.026Z,99.99
2018-02-05T10:00:36.021Z,99.99
2018-02-05T10:01:35.999Z,99.99
2018-02-05T10:02:35.963Z,99.99
2018-02-05T10:03:35.976Z,99.99
2018-02-05T10:04:35.931Z,99.99
2018-02-05T10:05:35.912Z,99.99
2018-02-05T10:06:35.901Z,99.99
2018-02-05T10:07:35.897Z,99.99
2018-02-05T10:08:35.879Z,99.99
2018-02-05T10:09:35.825Z,99.99
2018-02-05T10:10:35.836Z,99.99
2018-02-05T10:11:35.788Z,99.99
2018-02-05T10:12:35.768Z,99.99
2018-02-05T10:13:35.749Z,99.99
2018-02-05T10:14:35.742Z,99.99
2018-02-05T10:15:35.715Z,99.99
2018-02-05T10:16:35.694Z,99.99
2018-02-05T10:17:35.705Z,99.99
2018-02-05T10:18:35.654Z,99.99
2018-02-05T10:19:35.665Z,99.99
2018-02-05T10:20:35.645Z,99.99
2018-02-05T10:21:35.613Z,99.99
2018-02-05T10:22:35.580Z,99.99
2018-02-05T10:23:35.586Z,99.99
2018-02-05T10:24:35.542Z,99.99
2018-02-05T10:25:35.526Z,99.99
2018-02-05T10:26:35.516Z,99.99
2018-02-05T10:27:35.484Z,99.99
2018-02-05T10:28:35.478Z,99.99
2018-02-05T10:29:35.480Z,99.99
2018-02-05T10:30:35.454Z,99.99
2018-02-05T10:31:35.438Z,99.99
2018-02-05T10:32:35.427Z,99.99
2018-02-05T10:33:35.401Z,99.99
2018-02-05T10:34:35.368Z,99.99
2018-02-05T10:35:35.369Z,99.99
2018-02-05T10:36:35.319Z,99.99
2018-02-05T10:37:35.326Z,99.99
2018-02-05T10:38:35.287Z,99.99
2018-02-05T10:39:35.290Z,99.99
2018-02-05T10:40:35.242Z,99.98
2018-02-05T10:41:35.241Z,99.74
2018-02-05T10:42:35.218Z,99.11
2018-02-05T10:43:35.188Z,99.93
2018-02-05T10:44:35.177Z,99.98
2018-02-05T10:45:35.154Z,99.78
2018-02-05T10:46:35.158Z,99.99
2018-02-05T10:47:35.123Z,99.84
2018-02-05T10:48:35.097Z,99.69
2018-02-05T10:49:35.088Z,99.54
2018-02-05T10:50:35.062Z,98.39
2018-02-05T10:51:35.050Z,98.05
2018-02-05T10:52:35.048Z,97.57
2018-02-05T10:53:35.007Z,97.14
2018-02-05T10:54:34.989Z,97.57
2018-02-05T10:55:34.971Z,96.89
2018-02-05T10:56:34.964Z,96.42
2018-02-05T10:57:34.951Z,96.51
2018-02-05T10:58:34.940Z,96.12
2018-02-05T10:59:34.911Z,96.89
2018-02-05T11:00:34.916Z,96.66
2018-02-05T11:01:35.423Z,97.38
2018-02-05T11:02:34.871Z,96.80
2018-02-05T11:03:34.854Z,94.73
2018-02-05T11:04:34.836Z,93.28
2018-02-05T11:05:34.816Z,92.27
2018-02-05T11:06:34.780Z,91.40
2018-02-05T11:07:34.780Z,90.48
2018-02-05T11:08:34.747Z,90.05
2018-02-05T11:09:34.720Z,90.19
2018-02-05T11:10:34.704Z,89.07
2018-02-05T11:11:34.691Z,85.36
2018-02-05T11:12:34.670Z,85.26
2018-02-05T11:13:34.666Z,85.41
2018-02-05T11:14:34.655Z,86.66
2018-02-05T11:15:34.628Z,87.10
2018-02-05T11:16:34.622Z,87.30
2018-02-05T11:17:34.590Z,87.10
2018-02-05T11:18:34.588Z,86.57
2018-02-05T11:19:34.575Z,85.41
2018-02-05T11:20:34.565Z,84.06
2018-02-05T11:21:34.564Z,83.81
2018-02-05T11:22:34.543Z,83.04
2018-02-05T11:23:34.532Z,82.79
2018-02-05T11:24:34.515Z,82.69
2018-02-05T11:25:34.476Z,81.34
2018-02-05T11:26:34.457Z,81.11
2018-02-05T11:27:34.471Z,82.17
2018-02-05T11:28:34.461Z,82.51
2018-02-05T11:29:34.440Z,82.46
2018-02-05T11:30:34.424Z,80.76
2018-02-05T11:31:34.388Z,81.34
2018-02-05T11:32:34.375Z,81.53
2018-02-05T11:33:34.360Z,80.76
2018-02-05T11:34:34.349Z,81.30
2018-02-05T11:35:34.329Z,81.84
2018-02-05T11:36:34.321Z,81.26
2018-02-05T11:37:34.305Z,81.84
2018-02-05T11:38:34.287Z,82.46
2018-02-05T11:39:34.281Z,80.95
2018-02-05T11:40:34.258Z,78.87
2018-02-05T11:41:34.249Z,77.51
2018-02-05T11:42:34.231Z,78.64
2018-02-05T11:43:34.217Z,80.82
2018-02-05T11:44:34.230Z,80.33
2018-02-05T11:45:34.189Z,81.20
2018-02-05T11:46:34.208Z,81.20
2018-02-05T11:47:34.162Z,81.30
2018-02-05T11:48:34.146Z,81.74
2018-02-05T11:49:34.150Z,81.84
2018-02-05T11:50:34.121Z,81.84
2018-02-05T11:51:34.136Z,82.86
2018-02-05T11:52:34.116Z,83.96
2018-02-05T11:53:34.086Z,82.23
2018-02-05T11:54:34.062Z,83.09
2018-02-05T11:55:34.045Z,83.00
2018-02-05T11:56:34.029Z,82.90
2018-02-05T11:57:34.040Z,83.09
2018-02-05T11:58:34.002Z,83.58
2018-02-05T11:59:33.985Z,83.14
2018-02-05T12:00:33.999Z,82.65
2018-02-05T12:01:33.955Z,82.75
2018-02-05T12:02:33.943Z,82.65
2018-02-05T12:03:33.936Z,81.53
2018-02-05T12:04:33.923Z,80.76
2018-02-05T12:05:33.893Z,79.80
2018-02-05T12:06:33.906Z,78.44
2018-02-05T12:07:33.863Z,78.06
2018-02-05T12:08:33.847Z,78.83
2018-02-05T12:09:33.843Z,78.83
2018-02-05T12:10:33.825Z,79.54
2018-02-05T12:11:33.825Z,78.09
2018-02-05T12:12:33.812Z,77.48
2018-02-05T12:13:33.783Z,78.92
2018-02-05T12:14:33.771Z,78.09
2018-02-05T12:15:33.751Z,77.19
2018-02-05T12:16:33.762Z,78.38
2018-02-05T12:17:33.751Z,77.61
2018-02-05T12:18:33.737Z,77.38
2018-02-05T12:19:33.694Z,77.86
2018-02-05T12:20:33.686Z,78.44
2018-02-05T12:21:33.679Z,77.42
2018-02-05T12:22:33.657Z,77.26
2018-02-05T12:23:33.663Z,76.87
2018-02-05T12:24:33.626Z,75.91
2018-02-05T12:25:33.635Z,75.00
2018-02-05T12:26:33.600Z,76.12
2018-02-05T12:27:34.122Z,78.50
2018-02-05T12:28:33.574Z,77.38
2018-02-05T12:29:33.582Z,77.28
2018-02-05T12:30:33.555Z,76.26
2018-02-05T12:31:33.552Z,76.93
2018-02-05T12:32:33.514Z,76.32
2018-02-05T12:33:33.513Z,77.19
2018-02-05T12:34:33.488Z,76.86
2018-02-05T12:35:33.499Z,76.76
2018-02-05T12:36:33.483Z,78.79
2018-02-05T12:37:33.455Z,78.73
2018-02-05T12:38:33.434Z,76.64
2018-02-05T12:39:33.415Z,74.27
2018-02-05T12:40:33.397Z,73.10
2018-02-05T12:41:33.383Z,72.85
2018-02-05T12:42:33.394Z,72.62
2018-02-05T12:43:33.375Z,73.78
2018-02-05T12:44:33.368Z,74.07
2018-02-05T12:45:33.355Z,73.10
2018-02-05T12:46:33.346Z,74.36
2018-02-05T12:47:33.368Z,74.36
2018-02-05T12:48:33.281Z,73.30
2018-02-05T12:49:33.272Z,74.94
2018-02-05T12:50:33.255Z,75.71
2018-02-05T12:51:33.783Z,73.97
2018-02-05T12:52:33.234Z,75.00